Martin, Nebraska
Current Conditions -  °F | °C
As of 7:53 PM on Friday 28 Nov 2014 (Local Time) from KHSI Reporting Station
Clear Clear  
Wind Chill: 52°   Ceiling: Unl
Heat Index: 52°   Visibility: 10mi
Dew Point: 20°   Wind: 5mph
Humidity: 28%   Direction: 230°SW
Pressure: 29.65"   Gusts: NA
Location:  40.8074°N, 98.6117°W
Report Text: KHSI 290153Z AUTO 23004KT 10SM CLR 11/M07 A2965 RMK AO2 SLP047 T01111067
Loading
Personal Weather Stations






























Interactive Weather Map New forecast layout! Learn more

10-Day Weather Forecast

Advertisements
Track Severe Weather on mobile